Time;durP1;ratioP1;P1;durP2;ratioP2;P2;SDS_P1;SDS_P2;PMS_P1;PMS_P2;Temp;Humidity;BMP_temperature;BMP_pressure;BME280_temperature;BME280_humidity;BME280_pressure;Samples;Min_cycle;Max_cycle;Signal;HPM_P1;HPM_P2
2023/08/21 00:01:33;;;;;;;7.55;3.90;;;15.90;99.90;;;;;;7370591;19;20031;-66
2023/08/21 00:04:00;;;;;;;6.20;3.20;;;15.80;99.90;;;;;;7369809;19;20018;-65
2023/08/21 00:06:26;;;;;;;6.97;3.28;;;15.80;99.90;;;;;;7372001;19;20498;-65
2023/08/21 00:08:52;;;;;;;7.88;3.35;;;15.70;99.90;;;;;;7370119;19;20019;-65
2023/08/21 00:11:18;;;;;;;7.03;3.17;;;15.70;99.90;;;;;;7365668;19;20133;-66
2023/08/21 00:13:47;;;;;;;5.90;2.92;;;15.70;99.90;;;;;;7354264;19;20707;-66
2023/08/21 00:16:14;;;;;;;5.72;2.50;;;15.70;99.90;;;;;;7369055;19;20024;-66
2023/08/21 00:18:40;;;;;;;7.38;3.63;;;15.70;99.90;;;;;;7370127;19;20358;-66
2023/08/21 00:21:06;;;;;;;7.28;3.10;;;15.70;99.90;;;;;;7367178;19;20029;-65
2023/08/21 00:23:32;;;;;;;7.07;3.20;;;15.60;99.90;;;;;;7366027;19;20027;-66
2023/08/21 00:25:58;;;;;;;5.35;3.00;;;15.60;99.90;;;;;;7368347;19;20897;-66
2023/08/21 00:28:25;;;;;;;7.80;3.15;;;15.50;99.90;;;;;;7369021;19;20018;-65
2023/08/21 00:31:00;;;;;;;8.13;3.72;;;15.60;99.90;;;;;;7373421;19;20042;-66
2023/08/21 00:33:26;;;;;;;7.63;3.45;;;15.50;99.90;;;;;;7372962;19;20029;-66
2023/08/21 00:35:52;;;;;;;6.40;3.40;;;15.50;99.90;;;;;;7371477;19;20042;-66
2023/08/21 00:38:18;;;;;;;7.65;3.63;;;15.50;99.90;;;;;;7372860;19;20584;-66
2023/08/21 00:40:44;;;;;;;7.55;3.42;;;15.40;99.90;;;;;;7372469;19;20029;-66
2023/08/21 00:43:10;;;;;;;4.40;2.92;;;15.30;99.90;;;;;;7362663;19;20137;-66
2023/08/21 00:45:40;;;;;;;2.47;1.90;;;15.20;99.90;;;;;;7364125;19;20624;-65
2023/08/21 00:48:07;;;;;;;6.03;2.67;;;15.10;99.90;;;;;;7367633;19;20385;-65
2023/08/21 00:50:33;;;;;;;4.90;2.70;;;15.10;99.90;;;;;;7362469;19;20022;-65
2023/08/21 00:53:03;;;;;;;5.97;2.47;;;15.00;99.90;;;;;;7363191;19;20112;-65
2023/08/21 00:55:31;;;;;;;5.78;2.70;;;15.00;99.90;;;;;;7366864;19;20033;-65
2023/08/21 00:57:58;;;;;;;7.15;3.05;;;15.00;99.90;;;;;;7367940;19;20015;-66
2023/08/21 01:00:29;;;;;;;7.57;2.78;;;15.00;99.90;;;;;;7364027;19;20600;-66
2023/08/21 01:02:56;;;;;;;6.13;2.92;;;15.00;99.90;;;;;;7364104;19;20097;-66
2023/08/21 01:05:23;;;;;;;7.72;3.33;;;15.00;99.90;;;;;;7361839;19;20441;-65
2023/08/21 01:08:13;;;;;;;6.55;3.30;;;15.00;99.90;;;;;;7371316;19;20571;-66
2023/08/21 01:10:40;;;;;;;5.32;3.22;;;15.00;99.90;;;;;;7366614;19;20014;-65
2023/08/21 01:13:15;;;;;;;6.18;3.05;;;15.00;99.90;;;;;;7359150;19;20022;-65
2023/08/21 01:15:44;;;;;;;4.63;2.88;;;15.00;99.90;;;;;;7366594;19;20593;-66
2023/08/21 01:18:14;;;;;;;4.90;2.78;;;15.00;99.90;;;;;;7365723;19;20437;-66
2023/08/21 01:20:41;;;;;;;4.95;2.97;;;15.00;99.90;;;;;;7373129;19;20034;-66
2023/08/21 01:23:09;;;;;;;4.75;2.30;;;14.90;99.90;;;;;;7365736;19;20018;-66
2023/08/21 01:25:39;;;;;;;6.72;2.85;;;15.00;99.90;;;;;;7365379;19;20029;-66
2023/08/21 01:28:05;;;;;;;7.82;3.20;;;14.90;99.90;;;;;;7370749;19;20030;-65
2023/08/21 01:30:33;;;;;;;9.48;3.00;;;14.80;99.90;;;;;;7365855;19;20018;-66
2023/08/21 01:33:13;;;;;;;5.82;2.88;;;14.80;99.90;;;;;;7371685;19;20029;-66
2023/08/21 01:35:39;;;;;;;6.45;2.88;;;14.80;99.90;;;;;;7372913;19;20478;-66
2023/08/21 01:38:06;;;;;;;5.00;2.63;;;14.70;99.90;;;;;;7367758;19;20015;-66
2023/08/21 01:40:32;;;;;;;4.53;2.65;;;14.70;99.90;;;;;;7367235;19;20023;-65
2023/08/21 01:43:03;;;;;;;4.63;2.60;;;14.60;99.90;;;;;;7368837;19;20022;-65
2023/08/21 01:45:32;;;;;;;3.47;2.78;;;14.60;99.90;;;;;;7365006;19;20361;-65
2023/08/21 01:47:58;;;;;;;4.50;2.63;;;14.50;99.90;;;;;;7369266;19;20015;-65
2023/08/21 01:50:24;;;;;;;4.78;2.65;;;14.50;99.90;;;;;;7367454;19;20789;-65
2023/08/21 01:52:51;;;;;;;5.25;2.45;;;14.50;99.90;;;;;;7372782;19;20053;-65
2023/08/21 01:55:17;;;;;;;4.05;2.55;;;14.40;99.90;;;;;;7363406;19;20050;-65
2023/08/21 01:57:44;;;;;;;5.70;3.00;;;14.40;99.90;;;;;;7368412;19;20352;-65
2023/08/21 02:00:12;;;;;;;5.32;3.25;;;14.40;99.90;;;;;;7362252;19;20524;-65
2023/08/21 02:02:41;;;;;;;5.00;2.47;;;14.40;99.90;;;;;;7367665;19;20022;-66
2023/08/21 02:05:07;;;;;;;6.55;2.75;;;14.40;99.90;;;;;;7366268;19;20018;-65
2023/08/21 02:07:36;;;;;;;5.05;2.45;;;14.40;99.90;;;;;;7370092;19;21210;-65
2023/08/21 02:10:02;;;;;;;6.30;2.42;;;14.40;99.90;;;;;;7368707;19;20014;-65
2023/08/21 02:12:28;;;;;;;7.88;2.60;;;14.40;99.90;;;;;;7368071;19;20467;-66
2023/08/21 02:14:59;;;;;;;4.47;2.80;;;14.40;99.90;;;;;;7362131;19;20090;-65
2023/08/21 02:17:26;;;;;;;3.78;2.45;;;14.30;99.90;;;;;;7364683;19;20512;-65
2023/08/21 02:19:53;;;;;;;6.45;2.90;;;14.30;99.90;;;;;;7367110;19;20018;-65
2023/08/21 02:22:19;;;;;;;3.63;2.55;;;14.20;99.90;;;;;;7362628;19;20018;-66
2023/08/21 02:24:45;;;;;;;5.03;3.10;;;14.10;99.90;;;;;;7363067;19;20485;-65
2023/08/21 02:27:12;;;;;;;5.10;2.97;;;14.10;99.90;;;;;;7365516;19;20025;-66
2023/08/21 02:29:39;;;;;;;4.70;3.03;;;14.10;99.90;;;;;;7366335;19;20505;-66
2023/08/21 02:32:05;;;;;;;5.18;2.90;;;14.00;99.90;;;;;;7361021;19;20695;-66
2023/08/21 02:34:31;;;;;;;6.25;3.30;;;14.00;99.90;;;;;;7362112;19;20023;-66
2023/08/21 02:36:58;;;;;;;5.15;2.50;;;14.00;99.90;;;;;;7362475;19;20085;-66
2023/08/21 02:39:28;;;;;;;5.78;3.38;;;14.00;99.90;;;;;;7366036;19;20038;-66
2023/08/21 02:41:54;;;;;;;5.15;2.78;;;14.00;99.90;;;;;;7369214;19;20477;-64
2023/08/21 02:44:21;;;;;;;5.57;2.58;;;13.90;99.90;;;;;;7361760;19;20371;-64
2023/08/21 02:46:47;;;;;;;3.55;2.42;;;14.00;99.90;;;;;;7366725;19;20026;-65
2023/08/21 02:49:13;;;;;;;7.88;2.53;;;14.00;99.90;;;;;;7359659;19;20550;-65
2023/08/21 02:51:40;;;;;;;4.95;2.70;;;14.00;99.90;;;;;;7372026;19;20468;-65
2023/08/21 02:54:06;;;;;;;4.15;2.58;;;14.00;99.90;;;;;;7369295;19;20525;-65
2023/08/21 02:56:33;;;;;;;3.63;2.10;;;14.00;99.90;;;;;;7369820;19;20018;-65
2023/08/21 02:59:01;;;;;;;5.10;2.53;;;14.00;99.90;;;;;;7369192;19;20018;-65
2023/08/21 03:01:27;;;;;;;6.13;2.42;;;14.00;99.90;;;;;;7370563;19;20006;-65
2023/08/21 03:03:54;;;;;;;5.15;2.42;;;14.00;99.90;;;;;;7371241;19;20024;-65
2023/08/21 03:06:20;;;;;;;6.15;2.35;;;14.00;99.90;;;;;;7371094;19;20078;-65
2023/08/21 03:08:46;;;;;;;4.57;2.47;;;14.00;99.90;;;;;;7372823;19;20015;-65
2023/08/21 03:11:12;;;;;;;6.05;2.25;;;14.00;99.90;;;;;;7372495;19;20033;-65
2023/08/21 03:13:39;;;;;;;4.22;2.40;;;13.90;99.90;;;;;;7375112;19;20364;-65
2023/08/21 03:16:05;;;;;;;3.13;2.15;;;13.80;99.90;;;;;;7373053;19;20376;-65
2023/08/21 03:18:32;;;;;;;5.47;2.53;;;13.60;99.90;;;;;;7374784;19;20015;-65
2023/08/21 03:20:58;;;;;;;4.93;2.60;;;13.50;99.90;;;;;;7374876;19;20388;-65
2023/08/21 03:23:25;;;;;;;5.47;2.78;;;13.50;99.90;;;;;;7376668;19;20019;-65
2023/08/21 03:25:54;;;;;;;6.55;2.63;;;13.30;99.90;;;;;;7372884;19;20051;-65
2023/08/21 03:28:20;;;;;;;6.93;2.40;;;13.30;99.90;;;;;;7375250;19;20019;-65
2023/08/21 03:30:46;;;;;;;6.53;2.78;;;13.30;99.90;;;;;;7373001;19;20023;-65
2023/08/21 03:33:13;;;;;;;5.80;2.42;;;13.30;99.90;;;;;;7375123;19;20019;-65
2023/08/21 03:35:39;;;;;;;4.50;2.40;;;13.30;99.90;;;;;;7370266;19;20058;-65
2023/08/21 03:38:07;;;;;;;4.68;2.70;;;13.30;99.90;;;;;;7377244;19;20047;-65
2023/08/21 03:40:41;;;;;;;5.95;2.90;;;13.30;99.90;;;;;;7373086;19;20516;-66
2023/08/21 03:43:07;;;;;;;6.57;2.75;;;13.40;99.90;;;;;;7374720;19;20392;-65
2023/08/21 03:45:33;;;;;;;6.88;3.10;;;13.40;99.90;;;;;;7370762;19;20020;-65
2023/08/21 03:48:00;;;;;;;5.40;2.70;;;13.40;99.90;;;;;;7372242;19;20019;-65
2023/08/21 03:50:26;;;;;;;5.45;2.60;;;13.40;99.90;;;;;;7373470;19;20018;-65
2023/08/21 03:52:52;;;;;;;5.05;2.47;;;13.40;99.90;;;;;;7375677;19;20010;-65
2023/08/21 03:55:18;;;;;;;5.30;2.63;;;13.40;99.90;;;;;;7370106;19;20556;-64
2023/08/21 03:57:45;;;;;;;4.72;2.47;;;13.40;99.90;;;;;;7376285;19;20022;-66
2023/08/21 04:00:12;;;;;;;8.07;2.42;;;13.40;99.90;;;;;;7370884;19;20021;-65
2023/08/21 04:02:46;;;;;;;3.22;2.42;;;13.30;99.90;;;;;;7376036;19;20023;-65
2023/08/21 04:05:12;;;;;;;3.08;2.58;;;13.30;99.90;;;;;;7368318;19;20592;-65
2023/08/21 04:07:38;;;;;;;7.63;2.80;;;13.30;99.90;;;;;;7371660;19;20015;-65
2023/08/21 04:10:05;;;;;;;3.63;2.40;;;13.30;99.90;;;;;;7374926;19;20023;-65
2023/08/21 04:12:32;;;;;;;4.60;2.80;;;13.30;99.90;;;;;;7374263;19;20014;-65
2023/08/21 04:14:58;;;;;;;7.13;2.90;;;13.20;99.90;;;;;;7372248;19;20018;-65
2023/08/21 04:17:24;;;;;;;4.53;2.40;;;13.20;99.90;;;;;;7371608;19;20027;-66
2023/08/21 04:19:51;;;;;;;5.53;2.65;;;13.20;99.90;;;;;;7374202;19;20466;-66
2023/08/21 04:22:17;;;;;;;5.70;2.70;;;13.20;99.90;;;;;;7371130;19;20018;-66
2023/08/21 04:24:44;;;;;;;5.32;2.60;;;13.20;99.90;;;;;;7370052;19;20014;-65
2023/08/21 04:27:10;;;;;;;4.75;2.55;;;13.20;99.90;;;;;;7371301;19;20489;-66
2023/08/21 04:29:38;;;;;;;4.43;2.35;;;13.20;99.90;;;;;;7369179;19;20107;-65
2023/08/21 04:32:05;;;;;;;5.10;2.53;;;13.20;99.90;;;;;;7375753;19;20018;-65
2023/08/21 04:34:32;;;;;;;6.43;2.35;;;13.30;99.90;;;;;;7374715;19;20015;-65
2023/08/21 04:37:04;;;;;;;3.67;2.58;;;13.30;99.90;;;;;;7370477;19;20035;-65
2023/08/21 04:39:31;;;;;;;4.20;2.25;;;13.30;99.90;;;;;;7369861;19;20024;-64
2023/08/21 04:41:58;;;;;;;4.75;2.30;;;13.30;99.90;;;;;;7370468;19;20014;-65
2023/08/21 04:44:24;;;;;;;5.88;2.80;;;13.20;99.90;;;;;;7372052;19;20026;-65
2023/08/21 04:46:50;;;;;;;4.80;2.45;;;13.20;99.90;;;;;;7367954;19;21200;-65
2023/08/21 04:49:17;;;;;;;5.70;2.70;;;13.20;99.90;;;;;;7374223;19;20039;-65
2023/08/21 04:51:43;;;;;;;5.72;2.63;;;13.20;99.90;;;;;;7365630;19;20369;-65
2023/08/21 04:54:10;;;;;;;4.03;2.35;;;13.20;99.90;;;;;;7367100;19;20379;-66
2023/08/21 04:56:36;;;;;;;4.05;2.60;;;13.20;99.90;;;;;;7368417;19;20030;-65
2023/08/21 04:59:03;;;;;;;3.03;2.30;;;13.30;99.90;;;;;;7371635;19;20018;-67
2023/08/21 05:01:31;;;;;;;4.38;2.35;;;13.30;99.90;;;;;;7370855;19;20019;-66
2023/08/21 05:04:00;;;;;;;4.22;2.50;;;13.40;99.90;;;;;;7369920;19;20019;-66
2023/08/21 05:06:26;;;;;;;5.22;2.90;;;13.30;99.90;;;;;;7366419;19;20842;-66
2023/08/21 05:08:52;;;;;;;4.18;2.42;;;13.40;99.90;;;;;;7370816;19;20053;-66
2023/08/21 05:11:19;;;;;;;3.85;2.85;;;13.30;99.90;;;;;;7365198;19;20026;-66
2023/08/21 05:13:46;;;;;;;5.22;2.75;;;13.30;99.90;;;;;;7369221;19;20014;-66
2023/08/21 05:16:14;;;;;;;6.07;2.78;;;13.30;99.90;;;;;;7362534;19;20014;-65
2023/08/21 05:18:41;;;;;;;5.78;3.40;;;13.30;99.90;;;;;;7366730;19;20026;-66
2023/08/21 05:21:07;;;;;;;5.60;3.78;;;13.40;99.90;;;;;;7364380;19;20022;-65
2023/08/21 05:23:34;;;;;;;5.25;3.35;;;13.40;99.90;;;;;;7368154;19;20845;-65
2023/08/21 05:26:04;;;;;;;5.20;3.17;;;13.50;99.90;;;;;;7366464;19;20031;-66
2023/08/21 05:28:30;;;;;;;6.53;3.10;;;13.50;99.90;;;;;;7365812;19;20014;-66
2023/08/21 05:30:57;;;;;;;5.60;3.13;;;13.60;99.90;;;;;;7369360;19;20121;-66
2023/08/21 05:33:24;;;;;;;10.15;3.15;;;13.60;99.90;;;;;;7365337;19;20094;-65
2023/08/21 05:35:51;;;;;;;4.93;3.05;;;13.80;99.90;;;;;;7362645;19;20019;-65
2023/08/21 05:38:17;;;;;;;7.35;3.38;;;14.00;99.90;;;;;;7361465;19;20018;-62
2023/08/21 05:40:44;;;;;;;3.95;2.45;;;14.10;99.90;;;;;;7363110;19;20543;-64
2023/08/21 05:43:10;;;;;;;6.22;2.78;;;14.20;99.90;;;;;;7366189;19;20087;-67
2023/08/21 05:45:40;;;;;;;6.22;3.17;;;14.40;99.90;;;;;;7365104;19;20393;-65
2023/08/21 05:48:06;;;;;;;6.85;3.25;;;14.50;99.90;;;;;;7365525;19;20015;-67
2023/08/21 05:50:33;;;;;;;7.15;2.95;;;14.80;99.90;;;;;;7368593;19;20022;-66
2023/08/21 05:53:05;;;;;;;8.43;3.58;;;15.00;99.90;;;;;;7365011;19;20018;-66
2023/08/21 05:55:32;;;;;;;7.93;3.30;;;15.20;99.90;;;;;;7368940;19;20014;-66
2023/08/21 05:58:00;;;;;;;7.80;2.95;;;15.40;99.90;;;;;;7362972;19;20014;-66
2023/08/21 06:00:27;;;;;;;8.13;2.85;;;15.50;99.90;;;;;;7366870;19;20043;-66
2023/08/21 06:02:53;;;;;;;11.18;3.20;;;15.70;99.90;;;;;;7369193;19;20576;-66
2023/08/21 06:05:39;;;;;;;9.32;3.47;;;15.60;99.90;;;;;;7370841;19;20057;-66
2023/08/21 06:08:05;;;;;;;10.55;3.33;;;15.90;99.90;;;;;;7366629;19;20502;-63
2023/08/21 06:10:32;;;;;;;7.50;2.92;;;16.10;99.90;;;;;;7366969;19;20027;-68
2023/08/21 06:12:58;;;;;;;6.28;2.80;;;16.20;99.90;;;;;;7364246;19;20018;-66
2023/08/21 06:15:27;;;;;;;6.55;3.28;;;16.20;99.90;;;;;;7368464;19;20022;-66
2023/08/21 06:17:54;;;;;;;6.85;3.05;;;16.40;99.90;;;;;;7365422;19;20382;-66
2023/08/21 06:20:20;;;;;;;7.80;3.17;;;16.50;99.90;;;;;;7365631;19;20019;-64
2023/08/21 06:22:46;;;;;;;10.77;2.95;;;16.80;99.90;;;;;;7361643;19;20430;-67
2023/08/21 06:25:13;;;;;;;7.45;2.60;;;17.00;99.90;;;;;;7362595;19;20022;-67
2023/08/21 06:27:40;;;;;;;7.05;2.95;;;17.30;99.90;;;;;;7373808;19;20021;-65
2023/08/21 06:30:07;;;;;;;11.40;2.53;;;17.40;99.90;;;;;;7369911;19;20010;-65
2023/08/21 06:32:34;;;;;;;7.95;2.70;;;17.60;99.90;;;;;;7374208;19;20019;-65
2023/08/21 06:35:00;;;;;;;8.55;3.03;;;17.90;99.90;;;;;;7367708;19;20018;-67
2023/08/21 06:37:26;;;;;;;6.38;2.35;;;18.00;99.90;;;;;;7371363;19;20039;-67
2023/08/21 06:39:53;;;;;;;8.07;2.70;;;18.30;99.90;;;;;;7371887;19;20033;-66
2023/08/21 06:42:19;;;;;;;6.57;2.83;;;18.50;99.90;;;;;;7373567;19;20443;-67
2023/08/21 06:44:50;;;;;;;5.17;2.10;;;18.80;99.90;;;;;;7368348;19;20339;-67
2023/08/21 06:47:16;;;;;;;4.95;2.78;;;19.00;99.90;;;;;;7376716;19;20816;-64
2023/08/21 06:49:43;;;;;;;6.63;2.35;;;19.20;99.90;;;;;;7367244;19;20644;-65
2023/08/21 06:52:09;;;;;;;10.00;2.42;;;19.40;99.90;;;;;;7374635;19;20761;-66
2023/08/21 06:54:35;;;;;;;6.35;2.25;;;19.60;99.90;;;;;;7372936;19;20408;-66
2023/08/21 06:57:02;;;;;;;8.75;2.03;;;19.90;99.90;;;;;;7375110;19;20018;-66
2023/08/21 06:59:35;;;;;;;8.88;2.10;;;20.20;99.90;;;;;;7371695;19;20022;-67
2023/08/21 07:02:05;;;;;;;7.60;2.47;;;20.40;99.90;;;;;;7370499;19;20018;-66
2023/08/21 07:04:33;;;;;;;6.82;2.45;;;20.70;99.90;;;;;;7372509;19;20048;-66
2023/08/21 07:07:08;;;;;;;7.40;1.92;;;21.00;99.90;;;;;;7377433;19;20028;-66
2023/08/21 07:09:34;;;;;;;4.93;2.13;;;21.30;99.90;;;;;;7380362;19;20633;-66
2023/08/21 07:12:01;;;;;;;5.88;1.85;;;21.70;99.90;;;;;;7377542;19;20019;-66
2023/08/21 07:14:27;;;;;;;6.25;1.80;;;22.10;99.90;;;;;;7378604;19;20033;-66
2023/08/21 07:16:54;;;;;;;8.65;2.80;;;22.20;99.90;;;;;;7376969;19;20022;-66
2023/08/21 07:19:20;;;;;;;7.88;1.77;;;22.30;99.90;;;;;;7373613;19;20632;-65
2023/08/21 07:21:46;;;;;;;6.85;2.13;;;22.50;99.90;;;;;;7373306;19;20383;-67
2023/08/21 07:24:12;;;;;;;5.88;1.83;;;22.70;99.90;;;;;;7373287;19;20026;-66
2023/08/21 07:26:38;;;;;;;5.35;2.08;;;23.00;99.90;;;;;;7373945;19;20018;-66
2023/08/21 07:29:05;;;;;;;7.90;1.92;;;23.20;99.90;;;;;;7370702;19;20026;-67
2023/08/21 07:31:31;;;;;;;6.32;1.70;;;23.50;99.90;;;;;;7372387;19;20085;-68
2023/08/21 07:33:58;;;;;;;8.27;2.05;;;23.80;99.90;;;;;;7376166;19;20023;-67
2023/08/21 07:36:24;;;;;;;8.52;1.63;;;24.10;99.90;;;;;;7370559;19;20453;-67
2023/08/21 07:38:50;;;;;;;6.35;1.85;;;24.30;99.90;;;;;;7370434;19;20121;-67
2023/08/21 07:41:16;;;;;;;7.50;1.85;;;24.40;99.90;;;;;;7369072;19;20015;-67
2023/08/21 07:43:47;;;;;;;6.45;1.63;;;24.50;99.90;;;;;;7373433;19;20738;-67
2023/08/21 07:46:18;;;;;;;7.30;1.58;;;24.80;99.90;;;;;;7372369;19;20030;-67
2023/08/21 07:48:45;;;;;;;5.82;1.55;;;24.80;99.90;;;;;;7370889;19;20019;-66
2023/08/21 07:51:11;;;;;;;6.55;1.48;;;25.20;99.90;;;;;;7369808;19;20417;-66
2023/08/21 07:53:37;;;;;;;6.20;1.40;;;25.30;99.90;;;;;;7371737;19;20369;-66
2023/08/21 07:56:04;;;;;;;6.30;1.27;;;25.50;99.90;;;;;;7370305;19;20601;-67
2023/08/21 07:58:31;;;;;;;6.38;1.45;;;25.80;99.90;;;;;;7369490;19;20011;-66
2023/08/21 08:00:58;;;;;;;3.85;1.08;;;25.90;99.90;;;;;;7370229;19;20018;-63
2023/08/21 08:03:25;;;;;;;3.38;1.10;;;26.00;99.90;;;;;;7368761;19;20355;-67
2023/08/21 08:05:52;;;;;;;4.85;1.25;;;26.10;99.90;;;;;;7373547;19;20026;-67
2023/08/21 08:08:18;;;;;;;5.65;1.60;;;26.40;99.90;;;;;;7371037;19;20043;-67
2023/08/21 08:10:44;;;;;;;4.45;1.40;;;26.40;99.90;;;;;;7371889;19;20018;-67
2023/08/21 08:13:10;;;;;;;4.45;1.13;;;26.40;99.90;;;;;;7369393;19;20221;-67
2023/08/21 08:15:37;;;;;;;7.90;1.40;;;26.50;99.90;;;;;;7367951;19;20025;-67
2023/08/21 08:18:05;;;;;;;4.35;1.35;;;27.10;99.90;;;;;;7370263;19;20090;-67
2023/08/21 08:20:31;;;;;;;6.72;1.70;;;27.20;99.90;;;;;;7369893;19;20048;-67
2023/08/21 08:22:57;;;;;;;5.82;1.65;;;27.40;99.90;;;;;;7372475;19;20070;-66
2023/08/21 08:25:24;;;;;;;5.25;1.20;;;27.50;99.90;;;;;;7371997;19;20019;-66
2023/08/21 08:27:51;;;;;;;3.63;1.10;;;27.90;99.90;;;;;;7370912;19;20478;-67
2023/08/21 08:30:18;;;;;;;3.05;0.93;;;28.00;99.90;;;;;;7370531;19;20018;-67
2023/08/21 08:32:44;;;;;;;7.88;1.35;;;28.30;99.90;;;;;;7369407;19;20472;-66
2023/08/21 08:35:13;;;;;;;4.60;1.20;;;28.20;99.90;;;;;;7369999;19;20554;-69
2023/08/21 08:37:41;;;;;;;5.30;2.35;;;28.40;98.60;;;;;;7364300;19;20023;-67
2023/08/21 08:40:08;;;;;;;4.10;1.00;;;28.70;98.00;;;;;;7362817;19;20024;-67
2023/08/21 08:42:36;;;;;;;3.30;0.95;;;28.60;96.70;;;;;;7374308;19;20046;-67
2023/08/21 08:45:03;;;;;;;3.42;0.95;;;29.00;94.80;;;;;;7369390;19;20094;-68
2023/08/21 08:47:51;;;;;;;4.50;1.10;;;28.90;93.90;;;;;;7364407;19;20018;-68
2023/08/21 08:50:17;;;;;;;3.75;1.00;;;29.00;93.10;;;;;;7368944;19;20452;-68
2023/08/21 08:52:44;;;;;;;4.40;1.20;;;29.30;91.80;;;;;;7370307;19;20014;-70
2023/08/21 08:55:11;;;;;;;3.67;0.98;;;29.20;91.50;;;;;;7369187;19;20027;-71
2023/08/21 08:57:37;;;;;;;3.72;0.98;;;29.40;91.40;;;;;;7367189;19;20446;-72
2023/08/21 09:00:04;;;;;;;3.28;1.20;;;29.40;90.90;;;;;;7369386;19;20129;-71
2023/08/21 09:02:33;;;;;;;21.17;19.02;;;29.60;88.60;;;;;;7368659;19;20458;-67
2023/08/21 09:05:04;;;;;;;4.38;2.58;;;29.60;90.00;;;;;;7367887;19;20450;-65
2023/08/21 09:07:31;;;;;;;10.40;7.28;;;29.60;86.50;;;;;;7372003;19;20052;-65
2023/08/21 09:09:57;;;;;;;9.75;8.60;;;30.10;87.10;;;;;;7371555;19;20082;-72
2023/08/21 09:12:24;;;;;;;4.47;1.05;;;30.30;86.60;;;;;;7367780;19;20098;-71
2023/08/21 09:14:50;;;;;;;5.50;3.22;;;30.30;83.10;;;;;;7371783;19;20022;-72
2023/08/21 09:17:17;;;;;;;9.55;8.00;;;30.80;82.00;;;;;;7368473;19;20489;-72
2023/08/21 09:19:46;;;;;;;3.65;0.93;;;30.60;79.80;;;;;;7366590;19;20392;-72
2023/08/21 09:22:15;;;;;;;5.47;2.03;;;30.70;79.60;;;;;;7369111;19;20616;-69
2023/08/21 09:25:06;;;;;;;75.18;68.55;;;30.90;76.90;;;;;;7370717;19;20772;-71
2023/08/21 09:27:38;;;;;;;8.43;5.50;;;31.00;70.30;;;;;;7368924;19;20754;-71
2023/08/21 09:30:08;;;;;;;14.88;13.15;;;31.00;69.60;;;;;;7365899;19;20027;-70
2023/08/21 09:32:57;;;;;;;22.13;19.92;;;30.80;72.20;;;;;;7367839;19;20048;-63
2023/08/21 09:35:24;;;;;;;19.85;17.98;;;31.00;70.10;;;;;;7369495;19;20540;-63
2023/08/21 09:37:52;;;;;;;14.52;12.18;;;31.20;70.10;;;;;;7370890;19;20034;-70
2023/08/21 09:40:21;;;;;;;10.32;8.07;;;31.40;69.50;;;;;;7364915;19;20029;-70
2023/08/21 09:42:52;;;;;;;8.85;4.53;;;31.10;68.80;;;;;;7367483;19;20022;-71
2023/08/21 09:45:24;;;;;;;7.93;5.22;;;31.40;66.50;;;;;;7366528;19;20374;-72
2023/08/21 09:47:52;;;;;;;16.73;13.02;;;31.60;67.70;;;;;;7367061;19;20434;-64
2023/08/21 09:50:19;;;;;;;8.65;3.45;;;31.50;67.90;;;;;;7366420;19;20482;-71
2023/08/21 09:52:46;;;;;;;7.20;6.28;;;31.60;67.70;;;;;;7370554;19;20018;-71
2023/08/21 09:55:32;;;;;;;6.00;2.08;;;31.80;64.60;;;;;;7371692;19;20011;-64
2023/08/21 09:58:00;;;;;;;5.22;2.38;;;31.80;63.40;;;;;;7366871;19;20025;-67
2023/08/21 10:00:31;;;;;;;37.25;33.55;;;31.80;63.90;;;;;;7374446;19;20498;-70
2023/08/21 10:03:04;;;;;;;26.30;23.85;;;31.90;63.00;;;;;;7375740;19;20021;-71
2023/08/21 10:05:37;;;;;;;42.67;38.85;;;31.80;60.50;;;;;;7373222;19;20384;-71
2023/08/21 10:08:06;;;;;;;7.03;4.88;;;32.10;59.00;;;;;;7373556;19;20014;-71
2023/08/21 10:10:35;;;;;;;8.27;4.25;;;31.80;61.20;;;;;;7372884;19;20081;-71
2023/08/21 10:13:02;;;;;;;4.13;1.75;;;32.20;60.30;;;;;;7373599;19;20111;-70
2023/08/21 10:15:29;;;;;;;4.88;1.35;;;32.70;61.00;;;;;;7377681;19;20048;-70
2023/08/21 10:17:56;;;;;;;7.60;4.70;;;32.60;62.10;;;;;;7371374;19;20037;-64
2023/08/21 10:20:24;;;;;;;12.88;11.38;;;32.90;61.30;;;;;;7373714;19;20078;-65
2023/08/21 10:22:57;;;;;;;5.50;1.75;;;33.20;59.70;;;;;;7370219;19;20026;-65
2023/08/21 10:25:26;;;;;;;6.20;1.23;;;33.30;60.40;;;;;;7375005;19;20025;-65
2023/08/21 10:27:54;;;;;;;10.38;7.10;;;33.30;58.00;;;;;;7373102;19;20015;-71
2023/08/21 10:30:26;;;;;;;4.43;1.50;;;33.40;57.20;;;;;;7374529;19;20021;-64
2023/08/21 10:32:56;;;;;;;4.68;2.38;;;33.40;57.90;;;;;;7373041;19;20078;-64
2023/08/21 10:35:31;;;;;;;5.43;2.47;;;33.50;58.70;;;;;;7373082;19;20025;-65
2023/08/21 10:38:11;;;;;;;4.28;1.40;;;33.40;55.70;;;;;;7375207;19;20600;-65
2023/08/21 10:40:39;;;;;;;7.10;4.50;;;33.40;54.70;;;;;;7375201;19;20019;-70
2023/08/21 10:43:39;;;;;;;7.22;5.82;;;33.40;55.30;;;;;;7374768;19;20021;-70
2023/08/21 10:46:06;;;;;;;4.47;1.92;;;33.40;53.60;;;;;;7373436;19;20018;-70
2023/08/21 10:48:32;;;;;;;6.65;4.35;;;33.30;55.00;;;;;;7373744;19;20497;-69
2023/08/21 10:51:03;;;;;;;2.97;1.58;;;33.20;54.10;;;;;;7373754;19;20070;-68
2023/08/21 10:53:30;;;;;;;5.93;1.45;;;33.40;54.10;;;;;;7377379;19;20474;-68
2023/08/21 10:55:57;;;;;;;4.95;1.30;;;33.40;55.00;;;;;;7375439;19;20082;-65
2023/08/21 10:58:26;;;;;;;4.55;1.70;;;33.80;54.30;;;;;;7373327;19;20025;-65
2023/08/21 11:01:02;;;;;;;4.45;1.85;;;33.50;54.60;;;;;;7376325;19;20019;-69
2023/08/21 11:03:32;;;;;;;4.40;1.17;;;33.50;54.20;;;;;;7372854;19;20026;-68
2023/08/21 11:06:09;;;;;;;5.82;1.85;;;33.50;55.00;;;;;;7373873;19;20077;-69
2023/08/21 11:08:36;;;;;;;5.65;1.73;;;33.80;53.80;;;;;;7372585;19;20021;-67
2023/08/21 11:11:04;;;;;;;5.78;1.30;;;34.10;52.80;;;;;;7367576;19;20022;-66
2023/08/21 11:13:31;;;;;;;3.97;1.50;;;34.00;52.90;;;;;;7371038;19;20114;-68
2023/08/21 11:15:59;;;;;;;5.30;1.77;;;34.10;52.70;;;;;;7374507;19;20052;-68
2023/08/21 11:18:34;;;;;;;4.57;1.60;;;33.50;53.40;;;;;;7373426;19;20028;-69
2023/08/21 11:21:08;;;;;;;5.63;1.45;;;33.70;52.50;;;;;;7371528;19;20018;-69
2023/08/21 11:23:40;;;;;;;88.80;81.45;;;33.80;53.60;;;;;;7374444;19;20051;-70
2023/08/21 11:26:10;;;;;;;35.22;31.98;;;33.80;53.20;;;;;;7371363;19;20097;-70
2023/08/21 11:28:36;;;;;;;4.13;1.75;;;33.90;52.30;;;;;;7375054;19;20030;-70
2023/08/21 11:31:03;;;;;;;5.35;2.50;;;33.80;53.50;;;;;;7371333;19;20018;-70
2023/08/21 11:33:31;;;;;;;4.57;2.40;;;34.20;53.40;;;;;;7374945;19;20019;-65
2023/08/21 11:36:00;;;;;;;20.63;18.55;;;34.40;51.60;;;;;;7373119;19;20082;-65
2023/08/21 11:38:27;;;;;;;40.60;37.00;;;34.60;52.60;;;;;;7372025;19;20593;-65
2023/08/21 11:41:05;;;;;;;7.65;5.00;;;34.80;53.00;;;;;;7372914;19;20038;-70
2023/08/21 11:43:40;;;;;;;3.90;1.35;;;35.10;51.30;;;;;;7372729;19;20019;-64
2023/08/21 11:46:10;;;;;;;7.45;6.10;;;34.80;49.90;;;;;;7371396;19;20022;-63
2023/08/21 11:48:40;;;;;;;4.63;2.60;;;35.00;49.70;;;;;;7369279;19;20074;-65
2023/08/21 11:51:08;;;;;;;3.95;1.42;;;35.10;50.10;;;;;;7370447;19;20035;-69
2023/08/21 11:53:42;;;;;;;3.70;1.52;;;34.00;51.00;;;;;;7372087;19;20090;-65
2023/08/21 11:56:15;;;;;;;6.38;2.03;;;33.60;50.70;;;;;;7370779;19;20017;-66
2023/08/21 11:58:45;;;;;;;4.18;1.23;;;32.60;50.10;;;;;;7373800;19;20498;-67
2023/08/21 12:01:19;;;;;;;6.13;3.53;;;32.50;51.00;;;;;;7363447;19;20105;-68
2023/08/21 12:03:46;;;;;;;7.05;5.25;;;33.20;50.50;;;;;;7372949;19;20025;-63
2023/08/21 12:06:12;;;;;;;9.10;6.30;;;33.20;49.80;;;;;;7369922;19;20026;-63
2023/08/21 12:08:40;;;;;;;12.57;10.35;;;33.10;49.20;;;;;;7373863;19;20022;-68
2023/08/21 12:11:07;;;;;;;4.82;2.40;;;33.50;49.60;;;;;;7369730;19;20506;-68
2023/08/21 12:13:34;;;;;;;4.07;1.20;;;33.50;49.70;;;;;;7373065;19;20026;-64
2023/08/21 12:16:00;;;;;;;5.75;1.55;;;33.70;49.10;;;;;;7373794;19;20477;-63
2023/08/21 12:18:26;;;;;;;5.57;3.00;;;33.80;49.10;;;;;;7373477;19;20391;-63
2023/08/21 12:20:52;;;;;;;9.05;5.53;;;33.20;48.40;;;;;;7372581;19;20036;-67
2023/08/21 12:23:19;;;;;;;6.70;4.30;;;32.40;50.20;;;;;;7369794;19;20561;-66
2023/08/21 12:25:45;;;;;;;6.72;2.45;;;31.70;51.80;;;;;;7366580;19;20117;-64
2023/08/21 12:28:12;;;;;;;6.68;1.77;;;31.10;52.90;;;;;;7372297;19;20050;-67
2023/08/21 12:30:38;;;;;;;4.30;2.33;;;31.90;53.60;;;;;;7369215;19;20505;-68
2023/08/21 12:33:04;;;;;;;4.50;1.20;;;32.00;53.00;;;;;;7370095;19;20599;-68
2023/08/21 12:35:30;;;;;;;6.32;1.98;;;32.50;52.80;;;;;;7365918;19;20034;-68
2023/08/21 12:37:58;;;;;;;6.15;2.67;;;32.90;51.60;;;;;;7369829;19;20046;-69
2023/08/21 12:40:24;;;;;;;4.63;2.22;;;33.50;51.30;;;;;;7363420;19;20363;-69
2023/08/21 12:42:51;;;;;;;5.63;3.53;;;33.90;51.50;;;;;;7368548;19;20018;-68
2023/08/21 12:45:17;;;;;;;6.70;3.05;;;34.00;51.00;;;;;;7366467;19;20018;-68
2023/08/21 12:47:43;;;;;;;8.70;6.88;;;33.90;50.10;;;;;;7365875;19;20093;-68
2023/08/21 12:50:10;;;;;;;4.25;1.38;;;33.70;50.30;;;;;;7371763;19;20368;-65